sensor_id;sensor_type;location;lat;lon;timestamp;P1;durP1;ratioP1;P2;durP2;ratioP2
7699;SDS011;3892;47.794;19.126;2023-08-06T00:01:54;8.73;;;7.93;;
7699;SDS011;3892;47.794;19.126;2023-08-06T00:04:22;8.90;;;8.03;;
7699;SDS011;3892;47.794;19.126;2023-08-06T00:06:50;8.30;;;7.50;;
7699;SDS011;3892;47.794;19.126;2023-08-06T00:09:19;9.17;;;7.70;;
7699;SDS011;3892;47.794;19.126;2023-08-06T00:11:47;8.90;;;8.20;;
7699;SDS011;3892;47.794;19.126;2023-08-06T00:14:16;7.67;;;7.07;;
7699;SDS011;3892;47.794;19.126;2023-08-06T00:16:44;7.90;;;7.20;;
7699;SDS011;3892;47.794;19.126;2023-08-06T00:19:12;6.90;;;6.37;;
7699;SDS011;3892;47.794;19.126;2023-08-06T00:21:40;7.00;;;6.50;;
7699;SDS011;3892;47.794;19.126;2023-08-06T00:24:08;7.50;;;6.83;;
7699;SDS011;3892;47.794;19.126;2023-08-06T00:26:38;7.43;;;6.83;;
7699;SDS011;3892;47.794;19.126;2023-08-06T00:29:06;7.60;;;6.90;;
7699;SDS011;3892;47.794;19.126;2023-08-06T00:31:34;7.40;;;6.53;;
7699;SDS011;3892;47.794;19.126;2023-08-06T00:34:02;8.23;;;7.17;;
7699;SDS011;3892;47.794;19.126;2023-08-06T00:36:30;7.17;;;6.60;;
7699;SDS011;3892;47.794;19.126;2023-08-06T00:38:58;7.63;;;7.00;;
7699;SDS011;3892;47.794;19.126;2023-08-06T00:41:26;8.20;;;7.50;;
7699;SDS011;3892;47.794;19.126;2023-08-06T00:43:56;10.07;;;7.00;;
7699;SDS011;3892;47.794;19.126;2023-08-06T00:46:24;7.80;;;7.10;;
7699;SDS011;3892;47.794;19.126;2023-08-06T00:48:52;7.87;;;7.17;;
7699;SDS011;3892;47.794;19.126;2023-08-06T00:51:21;7.70;;;6.93;;
7699;SDS011;3892;47.794;19.126;2023-08-06T00:53:50;9.10;;;7.20;;
7699;SDS011;3892;47.794;19.126;2023-08-06T00:56:19;7.70;;;7.10;;
7699;SDS011;3892;47.794;19.126;2023-08-06T00:58:48;7.23;;;6.53;;
7699;SDS011;3892;47.794;19.126;2023-08-06T01:01:17;7.90;;;7.20;;
7699;SDS011;3892;47.794;19.126;2023-08-06T01:03:46;9.00;;;7.10;;
7699;SDS011;3892;47.794;19.126;2023-08-06T01:06:14;10.07;;;9.20;;
7699;SDS011;3892;47.794;19.126;2023-08-06T01:08:48;9.23;;;8.33;;
7699;SDS011;3892;47.794;19.126;2023-08-06T01:11:26;8.70;;;7.77;;
7699;SDS011;3892;47.794;19.126;2023-08-06T01:13:59;9.53;;;7.60;;
7699;SDS011;3892;47.794;19.126;2023-08-06T01:16:36;8.50;;;7.77;;
7699;SDS011;3892;47.794;19.126;2023-08-06T01:19:14;8.80;;;7.63;;
7699;SDS011;3892;47.794;19.126;2023-08-06T01:21:44;8.23;;;7.53;;
7699;SDS011;3892;47.794;19.126;2023-08-06T01:24:13;7.90;;;7.20;;
7699;SDS011;3892;47.794;19.126;2023-08-06T01:26:42;8.17;;;7.27;;
7699;SDS011;3892;47.794;19.126;2023-08-06T01:29:17;8.87;;;7.40;;
7699;SDS011;3892;47.794;19.126;2023-08-06T01:31:50;8.13;;;7.33;;
7699;SDS011;3892;47.794;19.126;2023-08-06T01:34:21;8.30;;;6.57;;
7699;SDS011;3892;47.794;19.126;2023-08-06T01:36:52;7.20;;;6.50;;
7699;SDS011;3892;47.794;19.126;2023-08-06T01:39:20;7.47;;;6.60;;
7699;SDS011;3892;47.794;19.126;2023-08-06T01:41:48;7.00;;;6.33;;
7699;SDS011;3892;47.794;19.126;2023-08-06T01:44:17;7.33;;;6.73;;
7699;SDS011;3892;47.794;19.126;2023-08-06T01:46:45;7.30;;;6.67;;
7699;SDS011;3892;47.794;19.126;2023-08-06T01:49:13;6.93;;;6.33;;
7699;SDS011;3892;47.794;19.126;2023-08-06T01:51:41;7.20;;;6.53;;
7699;SDS011;3892;47.794;19.126;2023-08-06T01:54:10;6.67;;;6.00;;
7699;SDS011;3892;47.794;19.126;2023-08-06T01:56:38;6.43;;;5.93;;
7699;SDS011;3892;47.794;19.126;2023-08-06T01:59:07;6.17;;;5.67;;
7699;SDS011;3892;47.794;19.126;2023-08-06T02:01:35;6.33;;;5.70;;
7699;SDS011;3892;47.794;19.126;2023-08-06T02:04:03;5.80;;;5.30;;
7699;SDS011;3892;47.794;19.126;2023-08-06T02:06:31;5.30;;;4.80;;
7699;SDS011;3892;47.794;19.126;2023-08-06T02:08:59;6.03;;;4.87;;
7699;SDS011;3892;47.794;19.126;2023-08-06T02:11:29;5.73;;;5.23;;
7699;SDS011;3892;47.794;19.126;2023-08-06T02:13:57;6.53;;;4.93;;
7699;SDS011;3892;47.794;19.126;2023-08-06T02:16:25;6.03;;;5.47;;
7699;SDS011;3892;47.794;19.126;2023-08-06T02:18:53;5.77;;;4.70;;
7699;SDS011;3892;47.794;19.126;2023-08-06T02:21:21;4.40;;;4.10;;
7699;SDS011;3892;47.794;19.126;2023-08-06T02:23:49;6.53;;;4.23;;
7699;SDS011;3892;47.794;19.126;2023-08-06T02:26:17;4.50;;;4.10;;
7699;SDS011;3892;47.794;19.126;2023-08-06T02:28:46;4.97;;;3.43;;
7699;SDS011;3892;47.794;19.126;2023-08-06T02:31:14;3.90;;;3.60;;
7699;SDS011;3892;47.794;19.126;2023-08-06T02:33:42;6.00;;;3.63;;
7699;SDS011;3892;47.794;19.126;2023-08-06T02:36:10;5.60;;;3.70;;
7699;SDS011;3892;47.794;19.126;2023-08-06T02:38:38;5.93;;;3.43;;
7699;SDS011;3892;47.794;19.126;2023-08-06T02:41:07;3.73;;;3.43;;
7699;SDS011;3892;47.794;19.126;2023-08-06T02:43:35;3.17;;;2.97;;
7699;SDS011;3892;47.794;19.126;2023-08-06T02:46:04;3.47;;;3.17;;
7699;SDS011;3892;47.794;19.126;2023-08-06T02:48:32;5.50;;;2.90;;
7699;SDS011;3892;47.794;19.126;2023-08-06T02:51:00;3.17;;;2.97;;
7699;SDS011;3892;47.794;19.126;2023-08-06T02:53:28;3.47;;;2.90;;
7699;SDS011;3892;47.794;19.126;2023-08-06T02:55:57;3.40;;;2.80;;
7699;SDS011;3892;47.794;19.126;2023-08-06T02:58:26;3.07;;;2.77;;
7699;SDS011;3892;47.794;19.126;2023-08-06T03:01:00;3.60;;;2.97;;
7699;SDS011;3892;47.794;19.126;2023-08-06T03:03:31;2.77;;;2.57;;
7699;SDS011;3892;47.794;19.126;2023-08-06T03:05:59;2.93;;;2.73;;
7699;SDS011;3892;47.794;19.126;2023-08-06T03:08:27;3.23;;;2.50;;
7699;SDS011;3892;47.794;19.126;2023-08-06T03:10:56;3.47;;;2.60;;
7699;SDS011;3892;47.794;19.126;2023-08-06T03:13:24;3.63;;;2.70;;
7699;SDS011;3892;47.794;19.126;2023-08-06T03:15:52;2.90;;;2.60;;
7699;SDS011;3892;47.794;19.126;2023-08-06T03:18:21;2.83;;;2.50;;
7699;SDS011;3892;47.794;19.126;2023-08-06T03:20:50;2.70;;;2.50;;
7699;SDS011;3892;47.794;19.126;2023-08-06T03:23:19;5.00;;;2.30;;
7699;SDS011;3892;47.794;19.126;2023-08-06T03:25:47;3.10;;;2.33;;
7699;SDS011;3892;47.794;19.126;2023-08-06T03:28:15;4.20;;;2.50;;
7699;SDS011;3892;47.794;19.126;2023-08-06T03:30:43;2.73;;;2.20;;
7699;SDS011;3892;47.794;19.126;2023-08-06T03:33:11;3.93;;;2.30;;
7699;SDS011;3892;47.794;19.126;2023-08-06T03:35:39;2.90;;;2.13;;
7699;SDS011;3892;47.794;19.126;2023-08-06T03:38:09;2.53;;;2.13;;
7699;SDS011;3892;47.794;19.126;2023-08-06T03:40:37;2.10;;;2.00;;
7699;SDS011;3892;47.794;19.126;2023-08-06T03:43:05;2.27;;;2.00;;
7699;SDS011;3892;47.794;19.126;2023-08-06T03:45:33;2.00;;;1.90;;
7699;SDS011;3892;47.794;19.126;2023-08-06T03:48:01;2.33;;;2.17;;
7699;SDS011;3892;47.794;19.126;2023-08-06T03:50:29;2.20;;;2.10;;
7699;SDS011;3892;47.794;19.126;2023-08-06T03:52:57;3.43;;;2.10;;
7699;SDS011;3892;47.794;19.126;2023-08-06T03:55:27;2.37;;;2.17;;
7699;SDS011;3892;47.794;19.126;2023-08-06T03:57:55;3.30;;;2.30;;
7699;SDS011;3892;47.794;19.126;2023-08-06T04:00:23;2.27;;;2.17;;
7699;SDS011;3892;47.794;19.126;2023-08-06T04:02:51;5.23;;;2.30;;
7699;SDS011;3892;47.794;19.126;2023-08-06T04:05:19;4.73;;;2.03;;
7699;SDS011;3892;47.794;19.126;2023-08-06T04:07:47;3.00;;;2.10;;
7699;SDS011;3892;47.794;19.126;2023-08-06T04:10:15;1.93;;;1.83;;
7699;SDS011;3892;47.794;19.126;2023-08-06T04:12:45;2.30;;;2.03;;
7699;SDS011;3892;47.794;19.126;2023-08-06T04:15:13;2.67;;;2.47;;
7699;SDS011;3892;47.794;19.126;2023-08-06T04:17:41;2.40;;;2.30;;
7699;SDS011;3892;47.794;19.126;2023-08-06T04:20:09;2.40;;;2.20;;
7699;SDS011;3892;47.794;19.126;2023-08-06T04:22:37;3.40;;;2.70;;
7699;SDS011;3892;47.794;19.126;2023-08-06T04:25:05;5.13;;;2.70;;
7699;SDS011;3892;47.794;19.126;2023-08-06T04:27:34;3.40;;;2.80;;
7699;SDS011;3892;47.794;19.126;2023-08-06T04:30:05;3.00;;;2.80;;
7699;SDS011;3892;47.794;19.126;2023-08-06T04:32:35;3.13;;;2.83;;
7699;SDS011;3892;47.794;19.126;2023-08-06T04:35:03;3.30;;;3.00;;
7699;SDS011;3892;47.794;19.126;2023-08-06T04:37:32;3.67;;;2.90;;
7699;SDS011;3892;47.794;19.126;2023-08-06T04:40:00;2.90;;;2.70;;
7699;SDS011;3892;47.794;19.126;2023-08-06T04:42:28;3.60;;;2.80;;
7699;SDS011;3892;47.794;19.126;2023-08-06T04:44:56;3.20;;;3.00;;
7699;SDS011;3892;47.794;19.126;2023-08-06T04:47:25;3.17;;;2.73;;
7699;SDS011;3892;47.794;19.126;2023-08-06T04:49:54;2.97;;;2.77;;
7699;SDS011;3892;47.794;19.126;2023-08-06T04:52:22;3.60;;;3.30;;
7699;SDS011;3892;47.794;19.126;2023-08-06T04:54:53;3.13;;;2.83;;
7699;SDS011;3892;47.794;19.126;2023-08-06T04:57:22;2.50;;;2.30;;
7699;SDS011;3892;47.794;19.126;2023-08-06T04:59:50;2.60;;;2.40;;
7699;SDS011;3892;47.794;19.126;2023-08-06T05:02:18;2.83;;;2.07;;
7699;SDS011;3892;47.794;19.126;2023-08-06T05:04:47;1.83;;;1.60;;
7699;SDS011;3892;47.794;19.126;2023-08-06T05:07:15;1.70;;;1.60;;
7699;SDS011;3892;47.794;19.126;2023-08-06T05:09:44;1.77;;;1.67;;
7699;SDS011;3892;47.794;19.126;2023-08-06T05:12:12;2.23;;;2.03;;
7699;SDS011;3892;47.794;19.126;2023-08-06T05:14:40;2.60;;;1.70;;
7699;SDS011;3892;47.794;19.126;2023-08-06T05:17:08;1.70;;;1.60;;
7699;SDS011;3892;47.794;19.126;2023-08-06T05:19:36;1.23;;;1.23;;
7699;SDS011;3892;47.794;19.126;2023-08-06T05:22:07;1.30;;;1.20;;
7699;SDS011;3892;47.794;19.126;2023-08-06T05:24:36;2.53;;;1.20;;
7699;SDS011;3892;47.794;19.126;2023-08-06T05:27:04;1.30;;;1.20;;
7699;SDS011;3892;47.794;19.126;2023-08-06T05:29:33;5.20;;;4.70;;
7699;SDS011;3892;47.794;19.126;2023-08-06T05:32:01;1.53;;;1.17;;
7699;SDS011;3892;47.794;19.126;2023-08-06T05:34:30;0.97;;;0.80;;
7699;SDS011;3892;47.794;19.126;2023-08-06T05:36:58;0.80;;;0.80;;
7699;SDS011;3892;47.794;19.126;2023-08-06T05:39:27;1.47;;;1.37;;
7699;SDS011;3892;47.794;19.126;2023-08-06T05:41:55;1.60;;;1.10;;
7699;SDS011;3892;47.794;19.126;2023-08-06T05:44:23;0.87;;;0.87;;
7699;SDS011;3892;47.794;19.126;2023-08-06T05:46:51;2.10;;;0.70;;
7699;SDS011;3892;47.794;19.126;2023-08-06T05:49:19;0.60;;;0.60;;
7699;SDS011;3892;47.794;19.126;2023-08-06T05:51:47;0.60;;;0.60;;
7699;SDS011;3892;47.794;19.126;2023-08-06T05:54:15;0.93;;;0.70;;
7699;SDS011;3892;47.794;19.126;2023-08-06T05:56:45;0.70;;;0.70;;
7699;SDS011;3892;47.794;19.126;2023-08-06T05:59:13;0.60;;;0.60;;
7699;SDS011;3892;47.794;19.126;2023-08-06T06:01:41;0.50;;;0.50;;
7699;SDS011;3892;47.794;19.126;2023-08-06T06:04:09;0.50;;;0.50;;
7699;SDS011;3892;47.794;19.126;2023-08-06T06:06:37;0.80;;;0.80;;
7699;SDS011;3892;47.794;19.126;2023-08-06T06:09:05;0.50;;;0.50;;
7699;SDS011;3892;47.794;19.126;2023-08-06T06:11:33;0.50;;;0.50;;
7699;SDS011;3892;47.794;19.126;2023-08-06T06:14:03;0.87;;;0.70;;
7699;SDS011;3892;47.794;19.126;2023-08-06T06:16:31;0.73;;;0.60;;
7699;SDS011;3892;47.794;19.126;2023-08-06T06:18:59;2.53;;;0.60;;
7699;SDS011;3892;47.794;19.126;2023-08-06T06:21:27;0.60;;;0.60;;
7699;SDS011;3892;47.794;19.126;2023-08-06T06:23:55;2.33;;;1.20;;
7699;SDS011;3892;47.794;19.126;2023-08-06T06:26:23;0.90;;;0.90;;
7699;SDS011;3892;47.794;19.126;2023-08-06T06:28:51;0.80;;;0.80;;
7699;SDS011;3892;47.794;19.126;2023-08-06T06:31:21;1.17;;;1.17;;
7699;SDS011;3892;47.794;19.126;2023-08-06T06:33:49;0.70;;;0.60;;
7699;SDS011;3892;47.794;19.126;2023-08-06T06:36:19;1.83;;;0.67;;
7699;SDS011;3892;47.794;19.126;2023-08-06T06:38:48;0.60;;;0.60;;
7699;SDS011;3892;47.794;19.126;2023-08-06T06:41:16;0.53;;;0.53;;
7699;SDS011;3892;47.794;19.126;2023-08-06T06:43:44;1.13;;;0.60;;
7699;SDS011;3892;47.794;19.126;2023-08-06T06:46:12;0.83;;;0.83;;
7699;SDS011;3892;47.794;19.126;2023-08-06T06:48:42;0.70;;;0.70;;
7699;SDS011;3892;47.794;19.126;2023-08-06T06:51:10;1.27;;;0.70;;
7699;SDS011;3892;47.794;19.126;2023-08-06T06:53:38;1.50;;;0.70;;
7699;SDS011;3892;47.794;19.126;2023-08-06T06:56:06;1.63;;;0.90;;
7699;SDS011;3892;47.794;19.126;2023-08-06T06:58:34;0.80;;;0.80;;
7699;SDS011;3892;47.794;19.126;2023-08-06T07:01:05;1.77;;;0.90;;
7699;SDS011;3892;47.794;19.126;2023-08-06T07:03:33;1.13;;;1.03;;
7699;SDS011;3892;47.794;19.126;2023-08-06T07:06:02;1.10;;;1.00;;
7699;SDS011;3892;47.794;19.126;2023-08-06T07:08:31;0.83;;;0.83;;
7699;SDS011;3892;47.794;19.126;2023-08-06T07:10:59;1.60;;;0.80;;
7699;SDS011;3892;47.794;19.126;2023-08-06T07:13:29;0.80;;;0.80;;
7699;SDS011;3892;47.794;19.126;2023-08-06T07:15:57;1.70;;;0.70;;
7699;SDS011;3892;47.794;19.126;2023-08-06T07:18:25;0.70;;;0.70;;
7699;SDS011;3892;47.794;19.126;2023-08-06T07:20:54;0.70;;;0.70;;
7699;SDS011;3892;47.794;19.126;2023-08-06T07:23:24;0.70;;;0.70;;
7699;SDS011;3892;47.794;19.126;2023-08-06T07:25:53;0.73;;;0.70;;
7699;SDS011;3892;47.794;19.126;2023-08-06T07:28:21;0.70;;;0.70;;
7699;SDS011;3892;47.794;19.126;2023-08-06T07:30:49;1.10;;;1.10;;
7699;SDS011;3892;47.794;19.126;2023-08-06T07:33:17;2.20;;;1.37;;
7699;SDS011;3892;47.794;19.126;2023-08-06T07:35:45;1.70;;;0.90;;
7699;SDS011;3892;47.794;19.126;2023-08-06T07:38:13;0.70;;;0.70;;
7699;SDS011;3892;47.794;19.126;2023-08-06T07:40:43;0.70;;;0.70;;
7699;SDS011;3892;47.794;19.126;2023-08-06T07:43:11;0.47;;;0.47;;
7699;SDS011;3892;47.794;19.126;2023-08-06T07:45:39;1.23;;;0.37;;
7699;SDS011;3892;47.794;19.126;2023-08-06T07:48:07;1.50;;;1.30;;
7699;SDS011;3892;47.794;19.126;2023-08-06T07:50:35;0.50;;;0.50;;
7699;SDS011;3892;47.794;19.126;2023-08-06T07:53:03;0.40;;;0.40;;
7699;SDS011;3892;47.794;19.126;2023-08-06T07:55:31;0.40;;;0.40;;
7699;SDS011;3892;47.794;19.126;2023-08-06T07:58:01;0.63;;;0.40;;
7699;SDS011;3892;47.794;19.126;2023-08-06T08:00:29;0.83;;;0.50;;
7699;SDS011;3892;47.794;19.126;2023-08-06T08:02:57;0.40;;;0.37;;
7699;SDS011;3892;47.794;19.126;2023-08-06T08:05:25;1.40;;;0.40;;
7699;SDS011;3892;47.794;19.126;2023-08-06T08:07:53;2.63;;;2.07;;
7699;SDS011;3892;47.794;19.126;2023-08-06T08:10:21;0.70;;;0.70;;
7699;SDS011;3892;47.794;19.126;2023-08-06T08:12:49;0.47;;;0.47;;
7699;SDS011;3892;47.794;19.126;2023-08-06T08:15:19;0.43;;;0.40;;
7699;SDS011;3892;47.794;19.126;2023-08-06T08:17:48;0.40;;;0.40;;
7699;SDS011;3892;47.794;19.126;2023-08-06T08:20:16;0.40;;;0.40;;
7699;SDS011;3892;47.794;19.126;2023-08-06T08:22:44;0.50;;;0.50;;
7699;SDS011;3892;47.794;19.126;2023-08-06T08:25:12;1.70;;;0.60;;
7699;SDS011;3892;47.794;19.126;2023-08-06T08:27:40;0.40;;;0.40;;
7699;SDS011;3892;47.794;19.126;2023-08-06T08:30:09;0.30;;;0.30;;
7699;SDS011;3892;47.794;19.126;2023-08-06T08:32:38;0.40;;;0.40;;
7699;SDS011;3892;47.794;19.126;2023-08-06T08:35:07;0.30;;;0.30;;
7699;SDS011;3892;47.794;19.126;2023-08-06T08:37:35;0.30;;;0.30;;
7699;SDS011;3892;47.794;19.126;2023-08-06T08:40:04;0.40;;;0.40;;
7699;SDS011;3892;47.794;19.126;2023-08-06T08:42:33;0.27;;;0.27;;
7699;SDS011;3892;47.794;19.126;2023-08-06T08:45:02;0.33;;;0.33;;
7699;SDS011;3892;47.794;19.126;2023-08-06T08:47:31;1.20;;;0.50;;
7699;SDS011;3892;47.794;19.126;2023-08-06T08:50:01;0.30;;;0.30;;
7699;SDS011;3892;47.794;19.126;2023-08-06T08:52:30;0.60;;;0.43;;
7699;SDS011;3892;47.794;19.126;2023-08-06T08:54:59;0.40;;;0.40;;
7699;SDS011;3892;47.794;19.126;2023-08-06T08:57:29;0.40;;;0.40;;
7699;SDS011;3892;47.794;19.126;2023-08-06T08:59:57;0.53;;;0.50;;
7699;SDS011;3892;47.794;19.126;2023-08-06T09:02:27;0.40;;;0.40;;
7699;SDS011;3892;47.794;19.126;2023-08-06T09:04:56;1.13;;;0.47;;
7699;SDS011;3892;47.794;19.126;2023-08-06T09:07:32;0.40;;;0.40;;
7699;SDS011;3892;47.794;19.126;2023-08-06T09:10:02;0.40;;;0.30;;
7699;SDS011;3892;47.794;19.126;2023-08-06T09:12:31;0.30;;;0.30;;
7699;SDS011;3892;47.794;19.126;2023-08-06T09:15:00;0.77;;;0.37;;
7699;SDS011;3892;47.794;19.126;2023-08-06T09:17:29;1.67;;;1.50;;
7699;SDS011;3892;47.794;19.126;2023-08-06T09:19:58;0.60;;;0.60;;
7699;SDS011;3892;47.794;19.126;2023-08-06T09:22:28;0.30;;;0.30;;
7699;SDS011;3892;47.794;19.126;2023-08-06T09:25:02;0.40;;;0.40;;
7699;SDS011;3892;47.794;19.126;2023-08-06T09:27:36;1.97;;;1.77;;
7699;SDS011;3892;47.794;19.126;2023-08-06T09:30:05;0.57;;;0.57;;
7699;SDS011;3892;47.794;19.126;2023-08-06T09:32:46;0.50;;;0.50;;
7699;SDS011;3892;47.794;19.126;2023-08-06T09:35:17;0.30;;;0.30;;
7699;SDS011;3892;47.794;19.126;2023-08-06T09:37:47;0.50;;;0.50;;
7699;SDS011;3892;47.794;19.126;2023-08-06T09:40:24;1.40;;;1.30;;
7699;SDS011;3892;47.794;19.126;2023-08-06T09:42:53;0.80;;;0.80;;
7699;SDS011;3892;47.794;19.126;2023-08-06T09:45:21;1.20;;;0.50;;
7699;SDS011;3892;47.794;19.126;2023-08-06T09:47:50;0.40;;;0.40;;
7699;SDS011;3892;47.794;19.126;2023-08-06T09:50:22;0.50;;;0.50;;
7699;SDS011;3892;47.794;19.126;2023-08-06T09:52:55;1.73;;;1.03;;
7699;SDS011;3892;47.794;19.126;2023-08-06T09:55:24;0.60;;;0.60;;
7699;SDS011;3892;47.794;19.126;2023-08-06T09:57:53;0.40;;;0.40;;
7699;SDS011;3892;47.794;19.126;2023-08-06T10:00:22;0.50;;;0.50;;
7699;SDS011;3892;47.794;19.126;2023-08-06T10:02:50;2.00;;;1.90;;
7699;SDS011;3892;47.794;19.126;2023-08-06T10:05:22;1.80;;;1.63;;
7699;SDS011;3892;47.794;19.126;2023-08-06T10:07:50;0.40;;;0.40;;
7699;SDS011;3892;47.794;19.126;2023-08-06T10:10:20;0.50;;;0.50;;
7699;SDS011;3892;47.794;19.126;2023-08-06T10:12:50;0.97;;;0.50;;
7699;SDS011;3892;47.794;19.126;2023-08-06T10:15:22;0.70;;;0.70;;
7699;SDS011;3892;47.794;19.126;2023-08-06T10:17:52;3.13;;;2.93;;
7699;SDS011;3892;47.794;19.126;2023-08-06T10:20:24;0.40;;;0.40;;
7699;SDS011;3892;47.794;19.126;2023-08-06T10:23:01;0.50;;;0.50;;
7699;SDS011;3892;47.794;19.126;2023-08-06T10:25:32;1.20;;;1.20;;
7699;SDS011;3892;47.794;19.126;2023-08-06T10:28:01;1.83;;;1.73;;
7699;SDS011;3892;47.794;19.126;2023-08-06T10:30:41;0.90;;;0.90;;
7699;SDS011;3892;47.794;19.126;2023-08-06T10:33:09;1.17;;;0.60;;
7699;SDS011;3892;47.794;19.126;2023-08-06T10:35:38;0.90;;;0.90;;
7699;SDS011;3892;47.794;19.126;2023-08-06T10:38:10;2.00;;;1.90;;
7699;SDS011;3892;47.794;19.126;2023-08-06T10:40:41;1.30;;;0.60;;
7699;SDS011;3892;47.794;19.126;2023-08-06T10:43:25;0.60;;;0.60;;
7699;SDS011;3892;47.794;19.126;2023-08-06T10:45:54;3.70;;;3.40;;
7699;SDS011;3892;47.794;19.126;2023-08-06T10:48:29;1.27;;;1.17;;
7699;SDS011;3892;47.794;19.126;2023-08-06T10:50:59;1.03;;;0.70;;
7699;SDS011;3892;47.794;19.126;2023-08-06T10:53:28;0.50;;;0.50;;
7699;SDS011;3892;47.794;19.126;2023-08-06T10:56:00;1.00;;;0.70;;
7699;SDS011;3892;47.794;19.126;2023-08-06T10:58:30;0.57;;;0.53;;
7699;SDS011;3892;47.794;19.126;2023-08-06T11:00:59;1.00;;;1.00;;
7699;SDS011;3892;47.794;19.126;2023-08-06T11:03:28;0.60;;;0.60;;
7699;SDS011;3892;47.794;19.126;2023-08-06T11:05:56;0.60;;;0.60;;
7699;SDS011;3892;47.794;19.126;2023-08-06T11:08:24;2.53;;;1.87;;
7699;SDS011;3892;47.794;19.126;2023-08-06T11:10:53;0.90;;;0.90;;
7699;SDS011;3892;47.794;19.126;2023-08-06T11:13:28;0.70;;;0.57;;
7699;SDS011;3892;47.794;19.126;2023-08-06T11:15:57;1.53;;;1.43;;
7699;SDS011;3892;47.794;19.126;2023-08-06T11:18:25;1.40;;;1.40;;
7699;SDS011;3892;47.794;19.126;2023-08-06T11:20:53;1.50;;;1.40;;
7699;SDS011;3892;47.794;19.126;2023-08-06T11:23:22;1.03;;;1.00;;
7699;SDS011;3892;47.794;19.126;2023-08-06T11:25:50;0.60;;;0.60;;
7699;SDS011;3892;47.794;19.126;2023-08-06T11:28:19;0.50;;;0.50;;
7699;SDS011;3892;47.794;19.126;2023-08-06T11:30:49;0.53;;;0.53;;
7699;SDS011;3892;47.794;19.126;2023-08-06T11:33:19;0.60;;;0.60;;
7699;SDS011;3892;47.794;19.126;2023-08-06T11:35:48;0.60;;;0.60;;
7699;SDS011;3892;47.794;19.126;2023-08-06T11:38:17;1.17;;;0.60;;
7699;SDS011;3892;47.794;19.126;2023-08-06T11:40:45;0.60;;;0.60;;
7699;SDS011;3892;47.794;19.126;2023-08-06T11:43:14;0.77;;;0.50;;
7699;SDS011;3892;47.794;19.126;2023-08-06T11:45:42;0.60;;;0.60;;
7699;SDS011;3892;47.794;19.126;2023-08-06T11:48:12;1.97;;;0.67;;
7699;SDS011;3892;47.794;19.126;2023-08-06T11:50:40;0.93;;;0.70;;
7699;SDS011;3892;47.794;19.126;2023-08-06T11:53:11;0.50;;;0.50;;
7699;SDS011;3892;47.794;19.126;2023-08-06T11:55:41;0.60;;;0.60;;
7699;SDS011;3892;47.794;19.126;2023-08-06T11:58:10;0.50;;;0.50;;
7699;SDS011;3892;47.794;19.126;2023-08-06T12:00:38;0.50;;;0.50;;
7699;SDS011;3892;47.794;19.126;2023-08-06T12:03:07;0.73;;;0.60;;
7699;SDS011;3892;47.794;19.126;2023-08-06T12:05:38;2.00;;;0.50;;
7699;SDS011;3892;47.794;19.126;2023-08-06T12:08:07;0.70;;;0.70;;
7699;SDS011;3892;47.794;19.126;2023-08-06T12:10:36;0.60;;;0.60;;
7699;SDS011;3892;47.794;19.126;2023-08-06T12:13:04;2.00;;;0.60;;
7699;SDS011;3892;47.794;19.126;2023-08-06T12:15:32;0.50;;;0.50;;
7699;SDS011;3892;47.794;19.126;2023-08-06T12:18:00;2.13;;;0.60;;
7699;SDS011;3892;47.794;19.126;2023-08-06T12:20:29;0.90;;;0.60;;
7699;SDS011;3892;47.794;19.126;2023-08-06T12:22:58;0.70;;;0.70;;
7699;SDS011;3892;47.794;19.126;2023-08-06T12:25:26;0.60;;;0.60;;
7699;SDS011;3892;47.794;19.126;2023-08-06T12:27:55;0.70;;;0.60;;
7699;SDS011;3892;47.794;19.126;2023-08-06T12:30:24;1.37;;;0.50;;
7699;SDS011;3892;47.794;19.126;2023-08-06T12:32:52;2.80;;;0.80;;
7699;SDS011;3892;47.794;19.126;2023-08-06T12:35:20;0.67;;;0.67;;
7699;SDS011;3892;47.794;19.126;2023-08-06T12:37:48;0.70;;;0.70;;
7699;SDS011;3892;47.794;19.126;2023-08-06T12:40:20;0.83;;;0.60;;
7699;SDS011;3892;47.794;19.126;2023-08-06T12:42:59;0.83;;;0.60;;
7699;SDS011;3892;47.794;19.126;2023-08-06T12:45:27;2.57;;;0.70;;
7699;SDS011;3892;47.794;19.126;2023-08-06T12:47:55;1.20;;;0.67;;
7699;SDS011;3892;47.794;19.126;2023-08-06T12:50:23;1.27;;;0.60;;
7699;SDS011;3892;47.794;19.126;2023-08-06T12:52:52;0.70;;;0.70;;
7699;SDS011;3892;47.794;19.126;2023-08-06T12:55:21;0.73;;;0.73;;
7699;SDS011;3892;47.794;19.126;2023-08-06T12:57:49;1.33;;;0.60;;
7699;SDS011;3892;47.794;19.126;2023-08-06T13:00:23;1.47;;;0.70;;
7699;SDS011;3892;47.794;19.126;2023-08-06T13:02:52;2.33;;;0.70;;
7699;SDS011;3892;47.794;19.126;2023-08-06T13:05:22;2.20;;;0.80;;
7699;SDS011;3892;47.794;19.126;2023-08-06T13:07:52;1.13;;;0.80;;
7699;SDS011;3892;47.794;19.126;2023-08-06T13:10:23;0.80;;;0.80;;
7699;SDS011;3892;47.794;19.126;2023-08-06T13:12:53;2.00;;;0.80;;
7699;SDS011;3892;47.794;19.126;2023-08-06T13:15:22;0.80;;;0.80;;
7699;SDS011;3892;47.794;19.126;2023-08-06T13:17:51;0.70;;;0.70;;
7699;SDS011;3892;47.794;19.126;2023-08-06T13:20:19;0.80;;;0.80;;
7699;SDS011;3892;47.794;19.126;2023-08-06T13:22:49;0.77;;;0.77;;
7699;SDS011;3892;47.794;19.126;2023-08-06T13:25:20;1.80;;;1.10;;
7699;SDS011;3892;47.794;19.126;2023-08-06T13:27:50;0.80;;;0.80;;
7699;SDS011;3892;47.794;19.126;2023-08-06T13:30:19;0.80;;;0.80;;
7699;SDS011;3892;47.794;19.126;2023-08-06T13:32:49;0.90;;;0.90;;
7699;SDS011;3892;47.794;19.126;2023-08-06T13:35:18;1.70;;;0.90;;
7699;SDS011;3892;47.794;19.126;2023-08-06T13:37:46;1.10;;;0.87;;
7699;SDS011;3892;47.794;19.126;2023-08-06T13:40:15;0.93;;;0.93;;
7699;SDS011;3892;47.794;19.126;2023-08-06T13:42:44;1.20;;;0.90;;
7699;SDS011;3892;47.794;19.126;2023-08-06T13:45:14;0.87;;;0.87;;
7699;SDS011;3892;47.794;19.126;2023-08-06T13:47:43;0.80;;;0.80;;
7699;SDS011;3892;47.794;19.126;2023-08-06T13:50:12;0.90;;;0.90;;
7699;SDS011;3892;47.794;19.126;2023-08-06T13:52:41;2.13;;;1.00;;
7699;SDS011;3892;47.794;19.126;2023-08-06T13:55:10;0.80;;;0.80;;
7699;SDS011;3892;47.794;19.126;2023-08-06T13:57:39;1.20;;;1.10;;
7699;SDS011;3892;47.794;19.126;2023-08-06T14:00:08;1.00;;;1.00;;
7699;SDS011;3892;47.794;19.126;2023-08-06T14:02:39;1.23;;;1.13;;
7699;SDS011;3892;47.794;19.126;2023-08-06T14:05:10;1.90;;;1.80;;
7699;SDS011;3892;47.794;19.126;2023-08-06T14:07:39;1.10;;;1.10;;
7699;SDS011;3892;47.794;19.126;2023-08-06T14:10:09;1.20;;;1.20;;
7699;SDS011;3892;47.794;19.126;2023-08-06T14:12:37;2.03;;;1.40;;
7699;SDS011;3892;47.794;19.126;2023-08-06T14:15:07;1.80;;;1.70;;
7699;SDS011;3892;47.794;19.126;2023-08-06T14:17:38;1.43;;;1.20;;
7699;SDS011;3892;47.794;19.126;2023-08-06T14:20:07;0.93;;;0.93;;
7699;SDS011;3892;47.794;19.126;2023-08-06T14:22:38;2.00;;;1.90;;
7699;SDS011;3892;47.794;19.126;2023-08-06T14:25:07;2.00;;;1.90;;
7699;SDS011;3892;47.794;19.126;2023-08-06T14:27:37;1.30;;;1.20;;
7699;SDS011;3892;47.794;19.126;2023-08-06T14:30:08;1.67;;;1.40;;
7699;SDS011;3892;47.794;19.126;2023-08-06T14:32:39;3.50;;;3.20;;
7699;SDS011;3892;47.794;19.126;2023-08-06T14:35:09;2.40;;;2.30;;
7699;SDS011;3892;47.794;19.126;2023-08-06T14:37:39;2.97;;;2.00;;
7699;SDS011;3892;47.794;19.126;2023-08-06T14:40:08;1.30;;;1.20;;
7699;SDS011;3892;47.794;19.126;2023-08-06T14:42:39;1.50;;;1.40;;
7699;SDS011;3892;47.794;19.126;2023-08-06T14:45:08;3.20;;;1.40;;
7699;SDS011;3892;47.794;19.126;2023-08-06T14:47:39;2.47;;;1.70;;
7699;SDS011;3892;47.794;19.126;2023-08-06T14:50:07;1.90;;;1.80;;
7699;SDS011;3892;47.794;19.126;2023-08-06T14:52:36;1.63;;;1.63;;
7699;SDS011;3892;47.794;19.126;2023-08-06T14:55:06;2.20;;;2.10;;
7699;SDS011;3892;47.794;19.126;2023-08-06T14:57:35;2.57;;;2.37;;
7699;SDS011;3892;47.794;19.126;2023-08-06T15:00:05;2.13;;;2.03;;
7699;SDS011;3892;47.794;19.126;2023-08-06T15:02:39;1.70;;;1.60;;
7699;SDS011;3892;47.794;19.126;2023-08-06T15:05:09;1.80;;;1.70;;
7699;SDS011;3892;47.794;19.126;2023-08-06T15:07:41;3.10;;;1.93;;
7699;SDS011;3892;47.794;19.126;2023-08-06T15:10:11;4.00;;;3.37;;
7699;SDS011;3892;47.794;19.126;2023-08-06T15:12:50;1.33;;;1.33;;